Red Mountain, CA (93558)

12:45 PM PST on December 27, 2014 (GMT -0800)
RAWS SQUAW SPRINGS CA US | Change Station
CLOSE
Current Station
Personal Weather Station
Location: Red Mountain, CA
Elevation: 3661 ft
Nearby Weather Stations

Elev 3661 ft 35.37 °N, 117.57 °W | Updated 54 minutes ago

Clear
Clear
41 °F
Feels Like 37 °F
N
6
Wind Variable Wind from East
Gusts 13.0 mph

Today
High -- | Low -- °F
--% Chance of Precip.
Yesterday
High -- | Low -- °F
Precip. -- in
6:58 AM 4:45 PM
Waxing Crescent, 40% visible
Pressure 30.41 in
Visibility 10.0 miles
Clouds Clear
Windchill 37 °F
Dew Point 5 °F
Humidity 22%
Rainfall 0.00 in
Snow Depth Not available.
UV 3 out of 12
Pollen 5.60 out of 12
Air Quality Not available.
Flu Activity Not available.
METAR KNID 271956Z AUTO 15004KT 10SM CLR 07/M11 A3037 RMK AO2 SLP296 T00721106 $

More Conditions Fewer Conditions

Pressure 30.41 in
Visibility 10.0 miles
Clouds Clear
Windchill 37 °F
Dew Point 5 °F
Humidity 22%
Rainfall 0.00 in
Snow Depth Not available.
UV 3 out of 12
Pollen 5.60 out of 12
Air Quality Not available.
Flu Activity Not available.
METAR KNID 271956Z AUTO 15004KT 10SM CLR 07/M11 A3037 RMK AO2 SLP296 T00721106 $

More Conditions Fewer Conditions

10-Day Weather Forecast

Almanac

Astronomy

Dec. 27, 2014 Rise Set
Actual Time
Civil Twilight
Nautical Twilight
Astronomical Twilight
Moon
Length of Visible Light
Length of Day
Tomorrow will be .
, % of the Moon is Illuminated

Today's Extremes

State Highs State Lows

Community

WunderPhotos

Upload Photos

1,781,053 photos uploaded!

WunderBlogs® & News

Nearby

Air Quality

  Air Quality AQ Index Pollutant
Not available.

Snow Depth

Station Depth Elevation

Earthquake Activity

City Distance Mag. Time & Date
Minimum magnitude displayed is 2.5.

Coastal Water Temperatures

Place Temperature

Nearby Weather Stations